sensor_id;sensor_type;location;lat;lon;timestamp;P1;durP1;ratioP1;P2;durP2;ratioP2
37303;SDS011;23188;51.188;16.374;2023-10-13T00:02:32;35.40;;;15.60;;
37303;SDS011;23188;51.188;16.374;2023-10-13T00:06:35;18.30;;;10.70;;
37303;SDS011;23188;51.188;16.374;2023-10-13T00:10:39;13.70;;;8.40;;
37303;SDS011;23188;51.188;16.374;2023-10-13T00:14:40;14.20;;;9.90;;
37303;SDS011;23188;51.188;16.374;2023-10-13T00:18:46;15.60;;;9.10;;
37303;SDS011;23188;51.188;16.374;2023-10-13T00:22:48;17.00;;;10.60;;
37303;SDS011;23188;51.188;16.374;2023-10-13T00:26:50;20.00;;;9.80;;
37303;SDS011;23188;51.188;16.374;2023-10-13T00:30:55;17.10;;;9.80;;
37303;SDS011;23188;51.188;16.374;2023-10-13T00:35:11;21.70;;;9.60;;
37303;SDS011;23188;51.188;16.374;2023-10-13T00:39:26;16.50;;;9.20;;
37303;SDS011;23188;51.188;16.374;2023-10-13T00:43:30;20.50;;;11.00;;
37303;SDS011;23188;51.188;16.374;2023-10-13T00:47:33;17.60;;;10.70;;
37303;SDS011;23188;51.188;16.374;2023-10-13T00:51:39;19.10;;;11.50;;
37303;SDS011;23188;51.188;16.374;2023-10-13T00:55:48;16.80;;;9.20;;
37303;SDS011;23188;51.188;16.374;2023-10-13T00:59:50;15.40;;;10.70;;
37303;SDS011;23188;51.188;16.374;2023-10-13T01:03:55;17.70;;;9.50;;
37303;SDS011;23188;51.188;16.374;2023-10-13T01:08:06;14.20;;;9.90;;
37303;SDS011;23188;51.188;16.374;2023-10-13T01:12:12;16.00;;;10.70;;
37303;SDS011;23188;51.188;16.374;2023-10-13T01:16:16;15.30;;;9.80;;
37303;SDS011;23188;51.188;16.374;2023-10-13T01:20:19;17.20;;;11.30;;
37303;SDS011;23188;51.188;16.374;2023-10-13T01:24:28;14.10;;;10.50;;
37303;SDS011;23188;51.188;16.374;2023-10-13T01:28:36;13.50;;;9.50;;
37303;SDS011;23188;51.188;16.374;2023-10-13T01:32:47;9.90;;;8.40;;
37303;SDS011;23188;51.188;16.374;2023-10-13T01:36:51;16.10;;;8.90;;
37303;SDS011;23188;51.188;16.374;2023-10-13T01:40:55;13.90;;;7.20;;
37303;SDS011;23188;51.188;16.374;2023-10-13T01:44:58;11.50;;;8.00;;
37303;SDS011;23188;51.188;16.374;2023-10-13T01:49:06;11.60;;;7.90;;
37303;SDS011;23188;51.188;16.374;2023-10-13T01:53:09;13.60;;;8.70;;
37303;SDS011;23188;51.188;16.374;2023-10-13T01:57:15;10.60;;;8.40;;
37303;SDS011;23188;51.188;16.374;2023-10-13T02:01:20;11.60;;;7.40;;
37303;SDS011;23188;51.188;16.374;2023-10-13T02:05:28;13.80;;;8.00;;
37303;SDS011;23188;51.188;16.374;2023-10-13T02:09:37;11.80;;;7.10;;
37303;SDS011;23188;51.188;16.374;2023-10-13T02:13:38;12.00;;;6.90;;
37303;SDS011;23188;51.188;16.374;2023-10-13T02:17:50;11.40;;;7.50;;
37303;SDS011;23188;51.188;16.374;2023-10-13T02:21:56;12.10;;;8.20;;
37303;SDS011;23188;51.188;16.374;2023-10-13T02:26:01;10.50;;;7.20;;
37303;SDS011;23188;51.188;16.374;2023-10-13T02:30:05;9.00;;;7.30;;
37303;SDS011;23188;51.188;16.374;2023-10-13T02:34:08;11.80;;;7.80;;
37303;SDS011;23188;51.188;16.374;2023-10-13T02:38:10;11.80;;;8.60;;
37303;SDS011;23188;51.188;16.374;2023-10-13T02:42:13;12.00;;;8.10;;
37303;SDS011;23188;51.188;16.374;2023-10-13T02:46:24;9.90;;;7.50;;
37303;SDS011;23188;51.188;16.374;2023-10-13T02:50:30;10.50;;;7.50;;
37303;SDS011;23188;51.188;16.374;2023-10-13T02:54:35;12.60;;;8.50;;
37303;SDS011;23188;51.188;16.374;2023-10-13T02:58:52;11.60;;;8.70;;
37303;SDS011;23188;51.188;16.374;2023-10-13T03:03:07;13.20;;;8.50;;
37303;SDS011;23188;51.188;16.374;2023-10-13T03:07:10;12.00;;;8.20;;
37303;SDS011;23188;51.188;16.374;2023-10-13T03:11:11;14.70;;;8.50;;
37303;SDS011;23188;51.188;16.374;2023-10-13T03:15:15;12.30;;;9.20;;
37303;SDS011;23188;51.188;16.374;2023-10-13T03:19:23;13.10;;;8.50;;
37303;SDS011;23188;51.188;16.374;2023-10-13T03:23:34;13.50;;;8.00;;
37303;SDS011;23188;51.188;16.374;2023-10-13T03:27:47;12.50;;;8.80;;
37303;SDS011;23188;51.188;16.374;2023-10-13T03:31:51;15.80;;;8.20;;
37303;SDS011;23188;51.188;16.374;2023-10-13T03:36:08;14.10;;;8.40;;
37303;SDS011;23188;51.188;16.374;2023-10-13T03:40:10;14.70;;;8.00;;
37303;SDS011;23188;51.188;16.374;2023-10-13T03:44:22;15.20;;;9.70;;
37303;SDS011;23188;51.188;16.374;2023-10-13T03:48:25;12.00;;;7.60;;
37303;SDS011;23188;51.188;16.374;2023-10-13T03:52:27;14.40;;;9.40;;
37303;SDS011;23188;51.188;16.374;2023-10-13T03:56:31;15.50;;;8.50;;
37303;SDS011;23188;51.188;16.374;2023-10-13T04:00:40;18.90;;;7.90;;
37303;SDS011;23188;51.188;16.374;2023-10-13T04:04:44;10.50;;;8.50;;
37303;SDS011;23188;51.188;16.374;2023-10-13T04:08:56;13.70;;;8.80;;
37303;SDS011;23188;51.188;16.374;2023-10-13T04:13:18;17.10;;;9.30;;
37303;SDS011;23188;51.188;16.374;2023-10-13T04:17:38;8.70;;;7.70;;
37303;SDS011;23188;51.188;16.374;2023-10-13T04:21:46;17.20;;;8.60;;
37303;SDS011;23188;51.188;16.374;2023-10-13T04:25:59;18.60;;;10.50;;
37303;SDS011;23188;51.188;16.374;2023-10-13T04:30:09;8.80;;;6.60;;
37303;SDS011;23188;51.188;16.374;2023-10-13T04:34:11;17.60;;;9.70;;
37303;SDS011;23188;51.188;16.374;2023-10-13T04:38:21;14.20;;;7.90;;
37303;SDS011;23188;51.188;16.374;2023-10-13T04:42:34;12.00;;;9.10;;
37303;SDS011;23188;51.188;16.374;2023-10-13T04:46:51;11.80;;;8.90;;
37303;SDS011;23188;51.188;16.374;2023-10-13T04:50:58;12.40;;;9.10;;
37303;SDS011;23188;51.188;16.374;2023-10-13T04:55:21;13.70;;;10.20;;
37303;SDS011;23188;51.188;16.374;2023-10-13T04:59:49;18.00;;;11.40;;
37303;SDS011;23188;51.188;16.374;2023-10-13T05:04:10;16.40;;;10.70;;
37303;SDS011;23188;51.188;16.374;2023-10-13T05:08:15;18.40;;;12.90;;
37303;SDS011;23188;51.188;16.374;2023-10-13T05:12:36;14.00;;;12.50;;
37303;SDS011;23188;51.188;16.374;2023-10-13T05:16:56;19.40;;;11.40;;
37303;SDS011;23188;51.188;16.374;2023-10-13T05:21:17;19.90;;;13.10;;
37303;SDS011;23188;51.188;16.374;2023-10-13T05:25:37;22.10;;;11.10;;
37303;SDS011;23188;51.188;16.374;2023-10-13T05:29:58;14.90;;;13.40;;
37303;SDS011;23188;51.188;16.374;2023-10-13T05:34:18;18.50;;;12.30;;
37303;SDS011;23188;51.188;16.374;2023-10-13T05:38:39;16.90;;;13.00;;
37303;SDS011;23188;51.188;16.374;2023-10-13T05:42:59;17.10;;;13.40;;
37303;SDS011;23188;51.188;16.374;2023-10-13T05:47:19;18.80;;;12.00;;
37303;SDS011;23188;51.188;16.374;2023-10-13T05:51:39;22.60;;;14.50;;
37303;SDS011;23188;51.188;16.374;2023-10-13T05:55:41;16.20;;;10.80;;
37303;SDS011;23188;51.188;16.374;2023-10-13T06:00:01;15.10;;;11.10;;
37303;SDS011;23188;51.188;16.374;2023-10-13T06:04:21;19.70;;;16.00;;
37303;SDS011;23188;51.188;16.374;2023-10-13T06:08:41;16.90;;;13.90;;
37303;SDS011;23188;51.188;16.374;2023-10-13T06:13:01;19.00;;;14.50;;
37303;SDS011;23188;51.188;16.374;2023-10-13T06:17:22;21.10;;;14.50;;
37303;SDS011;23188;51.188;16.374;2023-10-13T06:21:43;20.60;;;14.10;;
37303;SDS011;23188;51.188;16.374;2023-10-13T06:26:04;19.40;;;13.80;;
37303;SDS011;23188;51.188;16.374;2023-10-13T06:30:24;17.40;;;14.10;;
37303;SDS011;23188;51.188;16.374;2023-10-13T06:34:26;16.00;;;13.80;;
37303;SDS011;23188;51.188;16.374;2023-10-13T06:38:39;27.40;;;15.30;;
37303;SDS011;23188;51.188;16.374;2023-10-13T06:42:40;19.20;;;15.00;;
37303;SDS011;23188;51.188;16.374;2023-10-13T06:46:45;18.90;;;13.00;;
37303;SDS011;23188;51.188;16.374;2023-10-13T06:50:47;14.60;;;12.70;;
37303;SDS011;23188;51.188;16.374;2023-10-13T06:54:51;22.20;;;14.90;;
37303;SDS011;23188;51.188;16.374;2023-10-13T06:58:54;18.50;;;13.50;;
37303;SDS011;23188;51.188;16.374;2023-10-13T07:03:05;21.40;;;14.20;;
37303;SDS011;23188;51.188;16.374;2023-10-13T07:07:08;20.00;;;14.80;;
37303;SDS011;23188;51.188;16.374;2023-10-13T07:11:11;22.30;;;14.50;;
37303;SDS011;23188;51.188;16.374;2023-10-13T07:15:20;22.50;;;15.20;;
37303;SDS011;23188;51.188;16.374;2023-10-13T07:19:27;20.90;;;13.90;;
37303;SDS011;23188;51.188;16.374;2023-10-13T07:23:30;17.40;;;10.70;;
37303;SDS011;23188;51.188;16.374;2023-10-13T07:27:32;19.20;;;14.90;;
37303;SDS011;23188;51.188;16.374;2023-10-13T07:31:36;16.10;;;12.70;;
37303;SDS011;23188;51.188;16.374;2023-10-13T07:35:40;13.90;;;11.40;;
37303;SDS011;23188;51.188;16.374;2023-10-13T07:39:43;16.30;;;11.30;;
37303;SDS011;23188;51.188;16.374;2023-10-13T07:43:44;17.30;;;12.00;;
37303;SDS011;23188;51.188;16.374;2023-10-13T07:47:46;22.50;;;11.30;;
37303;SDS011;23188;51.188;16.374;2023-10-13T07:51:48;15.00;;;9.40;;
37303;SDS011;23188;51.188;16.374;2023-10-13T07:55:51;17.00;;;10.00;;
37303;SDS011;23188;51.188;16.374;2023-10-13T08:00:04;14.40;;;10.40;;
37303;SDS011;23188;51.188;16.374;2023-10-13T08:04:13;11.80;;;9.80;;
37303;SDS011;23188;51.188;16.374;2023-10-13T08:08:17;15.30;;;8.90;;
37303;SDS011;23188;51.188;16.374;2023-10-13T08:12:20;14.00;;;10.20;;
37303;SDS011;23188;51.188;16.374;2023-10-13T08:16:30;13.90;;;9.60;;
37303;SDS011;23188;51.188;16.374;2023-10-13T08:20:53;14.40;;;9.00;;
37303;SDS011;23188;51.188;16.374;2023-10-13T08:24:55;13.10;;;8.40;;
37303;SDS011;23188;51.188;16.374;2023-10-13T08:29:00;13.20;;;8.70;;
37303;SDS011;23188;51.188;16.374;2023-10-13T08:33:20;9.30;;;7.40;;
37303;SDS011;23188;51.188;16.374;2023-10-13T08:37:27;13.10;;;7.40;;
37303;SDS011;23188;51.188;16.374;2023-10-13T08:41:29;9.60;;;8.10;;
37303;SDS011;23188;51.188;16.374;2023-10-13T08:45:35;12.50;;;7.60;;
37303;SDS011;23188;51.188;16.374;2023-10-13T08:49:38;9.50;;;8.00;;
37303;SDS011;23188;51.188;16.374;2023-10-13T08:53:42;9.00;;;6.90;;
37303;SDS011;23188;51.188;16.374;2023-10-13T08:58:08;8.80;;;6.50;;
37303;SDS011;23188;51.188;16.374;2023-10-13T09:02:16;9.40;;;6.80;;
37303;SDS011;23188;51.188;16.374;2023-10-13T09:06:19;8.00;;;6.50;;
37303;SDS011;23188;51.188;16.374;2023-10-13T09:10:24;12.90;;;7.00;;
37303;SDS011;23188;51.188;16.374;2023-10-13T09:14:36;8.30;;;5.60;;
37303;SDS011;23188;51.188;16.374;2023-10-13T09:18:49;9.30;;;6.40;;
37303;SDS011;23188;51.188;16.374;2023-10-13T09:22:54;9.50;;;7.30;;
37303;SDS011;23188;51.188;16.374;2023-10-13T09:27:03;9.10;;;7.60;;
37303;SDS011;23188;51.188;16.374;2023-10-13T09:31:06;10.00;;;7.50;;
37303;SDS011;23188;51.188;16.374;2023-10-13T09:35:09;8.00;;;6.70;;
37303;SDS011;23188;51.188;16.374;2023-10-13T09:39:17;13.90;;;9.50;;
37303;SDS011;23188;51.188;16.374;2023-10-13T09:43:31;15.60;;;9.30;;
37303;SDS011;23188;51.188;16.374;2023-10-13T09:47:33;8.00;;;6.00;;
37303;SDS011;23188;51.188;16.374;2023-10-13T09:51:38;12.50;;;6.80;;
37303;SDS011;23188;51.188;16.374;2023-10-13T09:55:47;10.40;;;7.70;;
37303;SDS011;23188;51.188;16.374;2023-10-13T09:59:52;8.40;;;6.20;;
37303;SDS011;23188;51.188;16.374;2023-10-13T10:04:07;11.50;;;6.10;;
37303;SDS011;23188;51.188;16.374;2023-10-13T10:08:10;8.70;;;6.00;;
37303;SDS011;23188;51.188;16.374;2023-10-13T10:21:06;9.20;;;6.30;;
37303;SDS011;23188;51.188;16.374;2023-10-13T10:29:26;6.60;;;5.50;;
37303;SDS011;23188;51.188;16.374;2023-10-13T10:33:29;8.70;;;5.90;;
37303;SDS011;23188;51.188;16.374;2023-10-13T10:37:34;7.70;;;6.30;;
37303;SDS011;23188;51.188;16.374;2023-10-13T10:41:38;5.60;;;5.00;;
37303;SDS011;23188;51.188;16.374;2023-10-13T10:45:52;7.00;;;6.30;;
37303;SDS011;23188;51.188;16.374;2023-10-13T10:50:00;10.40;;;6.60;;
37303;SDS011;23188;51.188;16.374;2023-10-13T10:54:19;10.10;;;7.40;;
37303;SDS011;23188;51.188;16.374;2023-10-13T10:58:21;7.60;;;6.80;;
37303;SDS011;23188;51.188;16.374;2023-10-13T11:02:32;6.50;;;5.20;;
37303;SDS011;23188;51.188;16.374;2023-10-13T11:06:37;4.70;;;3.70;;
37303;SDS011;23188;51.188;16.374;2023-10-13T11:10:47;5.10;;;3.30;;
37303;SDS011;23188;51.188;16.374;2023-10-13T11:14:49;5.00;;;3.50;;
37303;SDS011;23188;51.188;16.374;2023-10-13T11:19:02;3.70;;;3.20;;
37303;SDS011;23188;51.188;16.374;2023-10-13T11:23:12;4.20;;;3.10;;
37303;SDS011;23188;51.188;16.374;2023-10-13T11:27:15;10.80;;;4.40;;
37303;SDS011;23188;51.188;16.374;2023-10-13T11:31:38;3.60;;;2.80;;
37303;SDS011;23188;51.188;16.374;2023-10-13T11:35:40;4.80;;;3.40;;
37303;SDS011;23188;51.188;16.374;2023-10-13T11:39:54;6.10;;;4.00;;
37303;SDS011;23188;51.188;16.374;2023-10-13T11:43:56;5.90;;;3.60;;
37303;SDS011;23188;51.188;16.374;2023-10-13T11:48:14;6.40;;;3.50;;
37303;SDS011;23188;51.188;16.374;2023-10-13T11:52:16;3.20;;;3.00;;
37303;SDS011;23188;51.188;16.374;2023-10-13T11:56:19;4.60;;;3.50;;
37303;SDS011;23188;51.188;16.374;2023-10-13T12:00:25;7.30;;;4.30;;
37303;SDS011;23188;51.188;16.374;2023-10-13T12:04:47;3.80;;;3.40;;
37303;SDS011;23188;51.188;16.374;2023-10-13T12:08:59;4.60;;;2.70;;
37303;SDS011;23188;51.188;16.374;2023-10-13T12:13:15;3.80;;;2.90;;
37303;SDS011;23188;51.188;16.374;2023-10-13T12:17:19;2.90;;;2.70;;
37303;SDS011;23188;51.188;16.374;2023-10-13T12:21:27;3.50;;;3.20;;
37303;SDS011;23188;51.188;16.374;2023-10-13T12:25:28;12.40;;;3.90;;
37303;SDS011;23188;51.188;16.374;2023-10-13T12:29:33;3.60;;;2.80;;
37303;SDS011;23188;51.188;16.374;2023-10-13T12:33:36;4.00;;;3.20;;
37303;SDS011;23188;51.188;16.374;2023-10-13T12:37:38;7.30;;;4.20;;
37303;SDS011;23188;51.188;16.374;2023-10-13T12:41:51;4.90;;;4.30;;
37303;SDS011;23188;51.188;16.374;2023-10-13T12:46:11;7.60;;;3.10;;
37303;SDS011;23188;51.188;16.374;2023-10-13T12:50:33;2.90;;;2.60;;
37303;SDS011;23188;51.188;16.374;2023-10-13T12:54:46;4.10;;;3.00;;
37303;SDS011;23188;51.188;16.374;2023-10-13T12:59:08;6.00;;;2.50;;
37303;SDS011;23188;51.188;16.374;2023-10-13T13:03:14;4.80;;;3.70;;
37303;SDS011;23188;51.188;16.374;2023-10-13T13:07:16;4.10;;;2.90;;
37303;SDS011;23188;51.188;16.374;2023-10-13T13:11:18;5.80;;;4.90;;
37303;SDS011;23188;51.188;16.374;2023-10-13T13:15:20;7.10;;;4.40;;
37303;SDS011;23188;51.188;16.374;2023-10-13T13:19:24;4.50;;;4.10;;
37303;SDS011;23188;51.188;16.374;2023-10-13T13:23:27;5.70;;;4.20;;
37303;SDS011;23188;51.188;16.374;2023-10-13T13:27:29;3.90;;;2.90;;
37303;SDS011;23188;51.188;16.374;2023-10-13T13:31:31;4.40;;;3.10;;
37303;SDS011;23188;51.188;16.374;2023-10-13T13:35:33;5.20;;;3.40;;
37303;SDS011;23188;51.188;16.374;2023-10-13T13:39:36;7.50;;;3.80;;
37303;SDS011;23188;51.188;16.374;2023-10-13T13:43:47;4.40;;;4.00;;
37303;SDS011;23188;51.188;16.374;2023-10-13T13:47:51;5.80;;;3.40;;
37303;SDS011;23188;51.188;16.374;2023-10-13T13:51:58;5.70;;;4.10;;
37303;SDS011;23188;51.188;16.374;2023-10-13T13:56:06;4.40;;;3.30;;
37303;SDS011;23188;51.188;16.374;2023-10-13T14:00:09;6.50;;;3.20;;
37303;SDS011;23188;51.188;16.374;2023-10-13T14:04:18;6.10;;;3.70;;
37303;SDS011;23188;51.188;16.374;2023-10-13T14:08:20;7.00;;;4.30;;
37303;SDS011;23188;51.188;16.374;2023-10-13T14:12:23;7.00;;;4.40;;
37303;SDS011;23188;51.188;16.374;2023-10-13T14:16:31;7.70;;;4.30;;
37303;SDS011;23188;51.188;16.374;2023-10-13T14:20:35;5.60;;;4.70;;
37303;SDS011;23188;51.188;16.374;2023-10-13T14:24:41;9.00;;;5.80;;
37303;SDS011;23188;51.188;16.374;2023-10-13T14:28:48;6.90;;;5.40;;
37303;SDS011;23188;51.188;16.374;2023-10-13T14:33:02;10.80;;;5.60;;
37303;SDS011;23188;51.188;16.374;2023-10-13T14:37:10;7.40;;;5.30;;
37303;SDS011;23188;51.188;16.374;2023-10-13T14:41:18;7.00;;;5.50;;
37303;SDS011;23188;51.188;16.374;2023-10-13T14:45:20;14.80;;;6.50;;
37303;SDS011;23188;51.188;16.374;2023-10-13T14:49:23;8.00;;;4.50;;
37303;SDS011;23188;51.188;16.374;2023-10-13T14:53:25;8.30;;;5.40;;
37303;SDS011;23188;51.188;16.374;2023-10-13T14:57:27;9.30;;;5.60;;
37303;SDS011;23188;51.188;16.374;2023-10-13T15:01:29;14.80;;;6.40;;
37303;SDS011;23188;51.188;16.374;2023-10-13T15:05:37;13.40;;;8.20;;
37303;SDS011;23188;51.188;16.374;2023-10-13T15:09:40;8.90;;;6.40;;
37303;SDS011;23188;51.188;16.374;2023-10-13T15:13:44;12.80;;;8.00;;
37303;SDS011;23188;51.188;16.374;2023-10-13T15:17:46;11.70;;;6.60;;
37303;SDS011;23188;51.188;16.374;2023-10-13T15:21:49;12.10;;;8.50;;
37303;SDS011;23188;51.188;16.374;2023-10-13T15:25:51;12.90;;;8.30;;
37303;SDS011;23188;51.188;16.374;2023-10-13T15:29:54;9.90;;;6.30;;
37303;SDS011;23188;51.188;16.374;2023-10-13T15:33:55;11.90;;;8.10;;
37303;SDS011;23188;51.188;16.374;2023-10-13T15:37:57;9.70;;;6.60;;
37303;SDS011;23188;51.188;16.374;2023-10-13T15:42:00;12.20;;;7.50;;
37303;SDS011;23188;51.188;16.374;2023-10-13T15:46:03;12.20;;;6.80;;
37303;SDS011;23188;51.188;16.374;2023-10-13T15:50:39;8.80;;;5.60;;
37303;SDS011;23188;51.188;16.374;2023-10-13T15:54:43;6.90;;;5.30;;
37303;SDS011;23188;51.188;16.374;2023-10-13T15:58:44;10.10;;;5.00;;
37303;SDS011;23188;51.188;16.374;2023-10-13T16:02:46;10.30;;;5.90;;
37303;SDS011;23188;51.188;16.374;2023-10-13T16:06:52;11.40;;;6.00;;
37303;SDS011;23188;51.188;16.374;2023-10-13T16:10:53;9.90;;;6.70;;
37303;SDS011;23188;51.188;16.374;2023-10-13T16:15:06;9.70;;;5.50;;
37303;SDS011;23188;51.188;16.374;2023-10-13T16:19:15;9.90;;;6.20;;
37303;SDS011;23188;51.188;16.374;2023-10-13T16:23:24;10.10;;;6.00;;
37303;SDS011;23188;51.188;16.374;2023-10-13T16:27:26;10.20;;;5.60;;
37303;SDS011;23188;51.188;16.374;2023-10-13T16:31:28;12.40;;;6.60;;
37303;SDS011;23188;51.188;16.374;2023-10-13T16:35:30;12.30;;;6.00;;
37303;SDS011;23188;51.188;16.374;2023-10-13T16:39:35;17.90;;;6.80;;
37303;SDS011;23188;51.188;16.374;2023-10-13T16:43:40;13.20;;;6.70;;
37303;SDS011;23188;51.188;16.374;2023-10-13T16:47:43;11.20;;;7.70;;
37303;SDS011;23188;51.188;16.374;2023-10-13T16:51:45;13.30;;;9.20;;
37303;SDS011;23188;51.188;16.374;2023-10-13T16:55:48;12.30;;;7.60;;
37303;SDS011;23188;51.188;16.374;2023-10-13T16:59:49;11.70;;;6.30;;
37303;SDS011;23188;51.188;16.374;2023-10-13T17:03:51;8.90;;;6.20;;
37303;SDS011;23188;51.188;16.374;2023-10-13T17:07:54;11.50;;;6.50;;
37303;SDS011;23188;51.188;16.374;2023-10-13T17:16:09;12.40;;;5.80;;
37303;SDS011;23188;51.188;16.374;2023-10-13T17:20:13;12.80;;;6.70;;
37303;SDS011;23188;51.188;16.374;2023-10-13T17:24:15;11.20;;;7.30;;
37303;SDS011;23188;51.188;16.374;2023-10-13T17:28:16;13.80;;;7.10;;
37303;SDS011;23188;51.188;16.374;2023-10-13T17:32:18;10.00;;;6.10;;
37303;SDS011;23188;51.188;16.374;2023-10-13T17:36:24;9.50;;;5.60;;
37303;SDS011;23188;51.188;16.374;2023-10-13T17:40:29;10.70;;;6.10;;
37303;SDS011;23188;51.188;16.374;2023-10-13T17:44:31;11.10;;;6.00;;
37303;SDS011;23188;51.188;16.374;2023-10-13T17:48:33;18.60;;;6.80;;
37303;SDS011;23188;51.188;16.374;2023-10-13T17:52:36;11.40;;;6.30;;
37303;SDS011;23188;51.188;16.374;2023-10-13T17:56:38;10.00;;;4.70;;
37303;SDS011;23188;51.188;16.374;2023-10-13T18:00:39;14.50;;;7.30;;
37303;SDS011;23188;51.188;16.374;2023-10-13T18:04:44;13.60;;;6.90;;
37303;SDS011;23188;51.188;16.374;2023-10-13T18:08:47;10.40;;;6.80;;
37303;SDS011;23188;51.188;16.374;2023-10-13T18:12:51;10.20;;;5.90;;
37303;SDS011;23188;51.188;16.374;2023-10-13T18:16:53;11.30;;;5.10;;
37303;SDS011;23188;51.188;16.374;2023-10-13T18:21:02;7.90;;;5.90;;
37303;SDS011;23188;51.188;16.374;2023-10-13T18:25:04;18.50;;;6.10;;
37303;SDS011;23188;51.188;16.374;2023-10-13T18:29:13;13.50;;;6.70;;
37303;SDS011;23188;51.188;16.374;2023-10-13T18:33:15;9.60;;;5.40;;
37303;SDS011;23188;51.188;16.374;2023-10-13T18:37:17;10.40;;;5.40;;
37303;SDS011;23188;51.188;16.374;2023-10-13T18:41:20;8.30;;;5.40;;
37303;SDS011;23188;51.188;16.374;2023-10-13T18:45:24;9.40;;;6.20;;
37303;SDS011;23188;51.188;16.374;2023-10-13T18:49:29;15.20;;;6.50;;
37303;SDS011;23188;51.188;16.374;2023-10-13T18:53:32;10.00;;;5.20;;
37303;SDS011;23188;51.188;16.374;2023-10-13T18:57:35;8.40;;;6.10;;
37303;SDS011;23188;51.188;16.374;2023-10-13T19:01:41;9.50;;;6.20;;
37303;SDS011;23188;51.188;16.374;2023-10-13T19:05:43;9.10;;;5.20;;
37303;SDS011;23188;51.188;16.374;2023-10-13T19:09:46;7.40;;;5.80;;
37303;SDS011;23188;51.188;16.374;2023-10-13T19:13:48;9.60;;;5.70;;
37303;SDS011;23188;51.188;16.374;2023-10-13T19:17:51;8.30;;;4.80;;
37303;SDS011;23188;51.188;16.374;2023-10-13T19:21:54;8.80;;;4.90;;
37303;SDS011;23188;51.188;16.374;2023-10-13T19:25:59;21.70;;;6.50;;
37303;SDS011;23188;51.188;16.374;2023-10-13T19:30:01;11.00;;;5.20;;
37303;SDS011;23188;51.188;16.374;2023-10-13T19:34:08;10.10;;;6.30;;
37303;SDS011;23188;51.188;16.374;2023-10-13T19:38:12;13.60;;;5.80;;
37303;SDS011;23188;51.188;16.374;2023-10-13T19:42:16;12.50;;;4.90;;
37303;SDS011;23188;51.188;16.374;2023-10-13T19:46:23;17.10;;;5.80;;
37303;SDS011;23188;51.188;16.374;2023-10-13T19:50:26;16.40;;;5.80;;
37303;SDS011;23188;51.188;16.374;2023-10-13T19:54:28;7.90;;;5.80;;
37303;SDS011;23188;51.188;16.374;2023-10-13T19:58:30;8.60;;;4.70;;
37303;SDS011;23188;51.188;16.374;2023-10-13T20:02:52;10.80;;;5.90;;
37303;SDS011;23188;51.188;16.374;2023-10-13T20:06:55;10.00;;;4.90;;
37303;SDS011;23188;51.188;16.374;2023-10-13T20:10:57;15.40;;;5.60;;
37303;SDS011;23188;51.188;16.374;2023-10-13T20:14:59;9.40;;;4.90;;
37303;SDS011;23188;51.188;16.374;2023-10-13T20:19:01;10.40;;;4.80;;
37303;SDS011;23188;51.188;16.374;2023-10-13T20:23:03;11.60;;;5.70;;
37303;SDS011;23188;51.188;16.374;2023-10-13T20:27:04;8.30;;;4.70;;
37303;SDS011;23188;51.188;16.374;2023-10-13T20:31:06;11.70;;;5.00;;
37303;SDS011;23188;51.188;16.374;2023-10-13T20:35:08;13.40;;;5.60;;
37303;SDS011;23188;51.188;16.374;2023-10-13T20:39:10;12.80;;;7.00;;
37303;SDS011;23188;51.188;16.374;2023-10-13T20:43:35;8.80;;;4.90;;
37303;SDS011;23188;51.188;16.374;2023-10-13T20:47:40;8.50;;;4.70;;
37303;SDS011;23188;51.188;16.374;2023-10-13T20:51:42;9.20;;;4.80;;
37303;SDS011;23188;51.188;16.374;2023-10-13T20:55:44;7.90;;;5.00;;
37303;SDS011;23188;51.188;16.374;2023-10-13T20:59:47;11.60;;;5.20;;
37303;SDS011;23188;51.188;16.374;2023-10-13T21:03:50;7.50;;;5.50;;
37303;SDS011;23188;51.188;16.374;2023-10-13T21:07:53;12.60;;;4.70;;
37303;SDS011;23188;51.188;16.374;2023-10-13T21:11:55;6.70;;;4.80;;
37303;SDS011;23188;51.188;16.374;2023-10-13T21:15:58;8.80;;;5.10;;
37303;SDS011;23188;51.188;16.374;2023-10-13T21:20:01;5.40;;;4.80;;
37303;SDS011;23188;51.188;16.374;2023-10-13T21:24:06;10.70;;;5.80;;
37303;SDS011;23188;51.188;16.374;2023-10-13T21:28:11;10.20;;;7.30;;
37303;SDS011;23188;51.188;16.374;2023-10-13T21:32:13;11.00;;;5.50;;
37303;SDS011;23188;51.188;16.374;2023-10-13T21:36:16;14.40;;;5.50;;
37303;SDS011;23188;51.188;16.374;2023-10-13T21:40:19;6.50;;;4.40;;
37303;SDS011;23188;51.188;16.374;2023-10-13T21:44:21;6.80;;;4.60;;
37303;SDS011;23188;51.188;16.374;2023-10-13T21:48:23;10.10;;;5.00;;
37303;SDS011;23188;51.188;16.374;2023-10-13T21:52:25;11.70;;;4.10;;
37303;SDS011;23188;51.188;16.374;2023-10-13T21:56:27;10.40;;;4.90;;
37303;SDS011;23188;51.188;16.374;2023-10-13T22:00:32;12.50;;;6.40;;
37303;SDS011;23188;51.188;16.374;2023-10-13T22:04:40;12.80;;;5.30;;
37303;SDS011;23188;51.188;16.374;2023-10-13T22:08:44;8.40;;;4.40;;
37303;SDS011;23188;51.188;16.374;2023-10-13T22:12:47;6.70;;;3.90;;
37303;SDS011;23188;51.188;16.374;2023-10-13T22:16:49;8.60;;;4.40;;
37303;SDS011;23188;51.188;16.374;2023-10-13T22:20:52;11.40;;;5.50;;
37303;SDS011;23188;51.188;16.374;2023-10-13T22:24:55;8.20;;;5.30;;
37303;SDS011;23188;51.188;16.374;2023-10-13T22:28:57;8.60;;;4.20;;
37303;SDS011;23188;51.188;16.374;2023-10-13T22:32:59;11.30;;;6.00;;
37303;SDS011;23188;51.188;16.374;2023-10-13T22:37:02;13.20;;;5.60;;
37303;SDS011;23188;51.188;16.374;2023-10-13T22:41:08;9.00;;;5.00;;
37303;SDS011;23188;51.188;16.374;2023-10-13T22:45:13;21.20;;;7.10;;
37303;SDS011;23188;51.188;16.374;2023-10-13T22:49:21;7.20;;;4.10;;
37303;SDS011;23188;51.188;16.374;2023-10-13T22:53:25;7.20;;;4.80;;
37303;SDS011;23188;51.188;16.374;2023-10-13T22:57:26;8.50;;;4.60;;
37303;SDS011;23188;51.188;16.374;2023-10-13T23:01:32;16.20;;;5.80;;
37303;SDS011;23188;51.188;16.374;2023-10-13T23:05:44;5.80;;;3.90;;
37303;SDS011;23188;51.188;16.374;2023-10-13T23:09:52;6.10;;;3.60;;
37303;SDS011;23188;51.188;16.374;2023-10-13T23:13:54;9.40;;;4.90;;
37303;SDS011;23188;51.188;16.374;2023-10-13T23:17:56;10.80;;;4.10;;
37303;SDS011;23188;51.188;16.374;2023-10-13T23:21:58;5.40;;;3.90;;
37303;SDS011;23188;51.188;16.374;2023-10-13T23:26:00;7.60;;;4.90;;
37303;SDS011;23188;51.188;16.374;2023-10-13T23:30:02;7.20;;;4.40;;
37303;SDS011;23188;51.188;16.374;2023-10-13T23:34:05;10.60;;;5.00;;
37303;SDS011;23188;51.188;16.374;2023-10-13T23:38:08;15.20;;;4.50;;
37303;SDS011;23188;51.188;16.374;2023-10-13T23:42:26;18.20;;;5.50;;
37303;SDS011;23188;51.188;16.374;2023-10-13T23:46:28;5.30;;;4.10;;
37303;SDS011;23188;51.188;16.374;2023-10-13T23:50:36;8.20;;;4.30;;
37303;SDS011;23188;51.188;16.374;2023-10-13T23:54:52;12.50;;;4.50;;
37303;SDS011;23188;51.188;16.374;2023-10-13T23:58:57;12.20;;;4.70;;
